Time;durP1;ratioP1;P1;durP2;ratioP2;P2;SDS_P1;SDS_P2;PMS_P1;PMS_P2;Temp;Humidity;BMP_temperature;BMP_pressure;BME280_temperature;BME280_humidity;BME280_pressure;Samples;Min_cycle;Max_cycle;Signal;HPM_P1;HPM_P2
2021/11/03 00:01:32;;;;;;;51.85;25.75;;;4.50;99.90;;;;;;5111014;28;20055;-68
2021/11/03 00:04:00;;;;;;;50.92;25.40;;;4.40;99.90;;;;;;5110900;28;20358;-68
2021/11/03 00:06:27;;;;;;;55.28;27.42;;;4.40;99.90;;;;;;5111212;28;20024;-68
2021/11/03 00:08:53;;;;;;;59.28;28.88;;;4.40;99.90;;;;;;5111147;28;20019;-68
2021/11/03 00:11:19;;;;;;;49.60;25.92;;;4.40;99.90;;;;;;5109963;28;20103;-68
2021/11/03 00:13:45;;;;;;;49.90;25.10;;;4.40;99.90;;;;;;5111046;28;20020;-68
2021/11/03 00:16:10;;;;;;;55.88;26.98;;;4.40;99.90;;;;;;5110447;28;20101;-68
2021/11/03 00:18:36;;;;;;;53.88;28.02;;;4.40;99.90;;;;;;5109249;28;20032;-68
2021/11/03 00:21:04;;;;;;;49.40;25.42;;;4.30;99.90;;;;;;5110639;28;20118;-68
2021/11/03 00:23:30;;;;;;;48.88;24.50;;;4.30;99.90;;;;;;5110294;28;20054;-67
2021/11/03 00:25:55;;;;;;;44.70;22.60;;;4.30;99.90;;;;;;5110231;28;20020;-68
2021/11/03 00:28:22;;;;;;;44.28;23.40;;;4.20;99.90;;;;;;5110794;28;20039;-68
2021/11/03 00:30:50;;;;;;;50.67;24.45;;;4.20;99.90;;;;;;5110759;28;20015;-68
2021/11/03 00:33:16;;;;;;;59.65;27.40;;;4.10;99.90;;;;;;5109203;28;20027;-68
2021/11/03 00:35:42;;;;;;;53.47;27.58;;;4.10;99.90;;;;;;5097637;28;20028;-68
2021/11/03 00:38:07;;;;;;;50.95;26.95;;;4.10;99.90;;;;;;5097023;28;20427;-68
2021/11/03 00:40:33;;;;;;;49.78;24.23;;;4.10;99.90;;;;;;5095490;28;20466;-68
2021/11/03 00:42:59;;;;;;;49.30;24.33;;;4.00;99.90;;;;;;5096845;28;20024;-68
2021/11/03 00:45:25;;;;;;;50.30;25.60;;;3.90;99.90;;;;;;5095179;28;20093;-68
2021/11/03 00:47:51;;;;;;;48.60;24.60;;;3.90;99.90;;;;;;5096606;28;20109;-68
2021/11/03 00:50:18;;;;;;;48.58;25.13;;;3.90;99.90;;;;;;5096794;28;20126;-67
2021/11/03 00:52:43;;;;;;;44.97;23.30;;;3.80;99.90;;;;;;5095251;28;20036;-67
2021/11/03 00:55:09;;;;;;;50.85;25.67;;;3.80;99.90;;;;;;5094887;28;20024;-68
2021/11/03 00:57:35;;;;;;;52.08;26.10;;;3.80;99.90;;;;;;5096389;28;20103;-67
2021/11/03 01:00:00;;;;;;;52.17;25.92;;;3.80;99.90;;;;;;5096610;28;20036;-67
2021/11/03 01:02:26;;;;;;;50.08;25.85;;;3.70;99.90;;;;;;5096478;28;20032;-67
2021/11/03 01:04:52;;;;;;;53.92;26.63;;;3.70;99.90;;;;;;5096510;28;20024;-67
2021/11/03 01:07:17;;;;;;;49.60;25.75;;;3.70;99.90;;;;;;5095008;28;20111;-67
2021/11/03 01:09:43;;;;;;;51.63;24.90;;;3.60;99.90;;;;;;5096135;28;20033;-67
2021/11/03 01:12:09;;;;;;;51.35;24.50;;;3.50;99.90;;;;;;5096119;28;20393;-67
2021/11/03 01:14:37;;;;;;;47.97;24.10;;;3.90;99.90;;;;;;5096326;28;20024;-68
2021/11/03 01:17:04;;;;;;;49.30;24.38;;;3.50;99.90;;;;;;5096001;28;20020;-67
2021/11/03 01:19:29;;;;;;;49.47;25.20;;;3.50;99.90;;;;;;5096252;28;20043;-68
2021/11/03 01:21:58;;;;;;;53.53;24.60;;;3.50;99.90;;;;;;5095917;28;20464;-67
2021/11/03 01:24:23;;;;;;;52.17;25.02;;;3.40;99.90;;;;;;5094182;28;20052;-67
2021/11/03 01:26:49;;;;;;;50.50;24.13;;;3.40;99.90;;;;;;5094969;28;20467;-67
2021/11/03 01:29:14;;;;;;;55.03;25.80;;;3.30;99.90;;;;;;5096065;28;20024;-67
2021/11/03 01:31:40;;;;;;;49.63;24.90;;;3.30;99.90;;;;;;5094601;28;20024;-67
2021/11/03 01:34:06;;;;;;;58.35;26.67;;;3.30;99.90;;;;;;5095677;28;20054;-67
2021/11/03 01:36:31;;;;;;;46.03;24.13;;;3.20;99.90;;;;;;5095332;28;20031;-67
2021/11/03 01:38:57;;;;;;;52.00;25.48;;;3.20;99.90;;;;;;5095305;28;20055;-67
2021/11/03 01:41:23;;;;;;;48.90;23.75;;;3.10;99.90;;;;;;5094357;28;20028;-67
2021/11/03 01:44:00;;;;;;;48.22;23.50;;;3.10;99.90;;;;;;5094835;28;20027;-67
2021/11/03 01:46:31;;;;;;;50.08;22.42;;;3.10;99.90;;;;;;5094709;28;20107;-67
2021/11/03 01:49:00;;;;;;;49.30;22.95;;;3.10;99.90;;;;;;5095669;28;20583;-67
2021/11/03 01:51:36;;;;;;;44.33;21.95;;;3.10;99.90;;;;;;5095650;28;20024;-67
2021/11/03 01:54:04;;;;;;;45.67;21.95;;;3.10;99.90;;;;;;5095279;28;20112;-67
2021/11/03 01:56:31;;;;;;;41.47;21.25;;;3.10;99.90;;;;;;5095549;28;20055;-67
2021/11/03 01:59:06;;;;;;;41.53;20.95;;;3.10;99.90;;;;;;5094929;28;20149;-67
2021/11/03 02:01:32;;;;;;;44.75;21.92;;;3.10;99.90;;;;;;5094318;28;20189;-67
2021/11/03 02:03:58;;;;;;;44.22;21.92;;;3.10;99.90;;;;;;5094737;28;20085;-67
2021/11/03 02:06:26;;;;;;;42.40;21.70;;;3.10;99.90;;;;;;5093885;28;20062;-67
2021/11/03 02:08:54;;;;;;;52.72;24.20;;;3.00;99.90;;;;;;5093467;28;20098;-67
2021/11/03 02:11:22;;;;;;;44.85;22.75;;;3.00;99.90;;;;;;5094948;28;20020;-67
2021/11/03 02:13:48;;;;;;;51.92;23.35;;;3.00;99.90;;;;;;5095167;28;20023;-67
2021/11/03 02:16:16;;;;;;;49.28;23.25;;;3.00;99.90;;;;;;5095114;28;20043;-67
2021/11/03 02:18:42;;;;;;;50.63;24.20;;;2.90;99.90;;;;;;5094845;28;20044;-67
2021/11/03 02:21:10;;;;;;;55.08;24.95;;;2.90;99.90;;;;;;5094501;28;20492;-67
2021/11/03 02:23:58;;;;;;;52.53;25.02;;;2.90;99.90;;;;;;5094312;28;20055;-67
2021/11/03 02:26:28;;;;;;;55.45;25.75;;;2.80;99.90;;;;;;5093081;28;20024;-67
2021/11/03 02:28:55;;;;;;;45.08;22.73;;;2.90;99.90;;;;;;5094904;28;20020;-67
2021/11/03 02:31:32;;;;;;;52.38;24.23;;;2.80;99.90;;;;;;5093420;28;20030;-67
2021/11/03 02:33:58;;;;;;;44.40;22.08;;;2.70;99.90;;;;;;5094808;28;20024;-67
2021/11/03 02:36:24;;;;;;;47.58;22.90;;;2.70;99.90;;;;;;5093272;28;20123;-67
2021/11/03 02:38:50;;;;;;;53.28;23.77;;;2.70;99.90;;;;;;5094455;28;20063;-67
2021/11/03 02:41:20;;;;;;;56.30;26.08;;;2.70;99.90;;;;;;5092880;28;20027;-67
2021/11/03 02:43:51;;;;;;;56.13;25.02;;;2.70;99.90;;;;;;5094544;28;20029;-67
2021/11/03 02:46:18;;;;;;;48.92;24.20;;;2.60;99.90;;;;;;5093153;28;20020;-67
2021/11/03 02:48:45;;;;;;;54.60;25.63;;;2.60;99.90;;;;;;5094560;28;20048;-67
2021/11/03 02:51:17;;;;;;;54.33;23.92;;;2.60;99.90;;;;;;5076158;28;20115;-67
2021/11/03 02:53:46;;;;;;;58.03;26.40;;;2.60;99.90;;;;;;5094510;28;20028;-67
2021/11/03 02:56:14;;;;;;;49.63;24.13;;;2.60;99.90;;;;;;5094511;28;20097;-67
2021/11/03 02:58:40;;;;;;;47.00;22.20;;;2.50;99.90;;;;;;5094178;28;20054;-67
2021/11/03 03:01:11;;;;;;;53.70;24.50;;;2.40;99.90;;;;;;5094099;28;20408;-67
2021/11/03 03:03:37;;;;;;;51.53;25.25;;;2.40;99.90;;;;;;5093727;28;20050;-67
2021/11/03 03:06:07;;;;;;;52.08;24.20;;;2.50;99.90;;;;;;5094301;28;20024;-67
2021/11/03 03:08:33;;;;;;;51.20;23.45;;;2.60;99.90;;;;;;5093996;28;20028;-67
2021/11/03 03:11:03;;;;;;;49.63;23.80;;;2.60;99.90;;;;;;5092802;28;20024;-67
2021/11/03 03:13:29;;;;;;;64.53;28.08;;;2.60;99.90;;;;;;5093960;28;20024;-67
2021/11/03 03:15:54;;;;;;;56.50;26.02;;;2.60;99.90;;;;;;5094222;28;20402;-67
2021/11/03 03:18:20;;;;;;;67.72;28.13;;;2.60;99.90;;;;;;5094190;28;20112;-67
2021/11/03 03:20:45;;;;;;;63.70;27.45;;;2.70;99.90;;;;;;5093879;28;20020;-67
2021/11/03 03:23:11;;;;;;;69.93;28.83;;;2.60;99.90;;;;;;5093322;28;20157;-67
2021/11/03 03:25:37;;;;;;;59.53;27.48;;;2.70;99.90;;;;;;5094114;28;20454;-67
2021/11/03 03:28:03;;;;;;;73.82;29.17;;;2.70;99.90;;;;;;5093789;28;20455;-67
2021/11/03 03:30:29;;;;;;;67.28;28.02;;;2.80;99.90;;;;;;5094106;28;20127;-67
2021/11/03 03:32:54;;;;;;;72.47;29.50;;;2.90;99.90;;;;;;5092206;28;20035;-67
2021/11/03 03:35:20;;;;;;;75.97;32.10;;;2.90;99.90;;;;;;5094038;28;20069;-67
2021/11/03 03:37:47;;;;;;;73.40;30.48;;;3.00;99.90;;;;;;5094022;28;20078;-67
2021/11/03 03:40:13;;;;;;;78.10;30.40;;;3.00;99.90;;;;;;5093958;28;20403;-67
2021/11/03 03:42:38;;;;;;;75.95;30.40;;;2.90;99.90;;;;;;5092894;28;20054;-67
2021/11/03 03:45:05;;;;;;;55.95;27.10;;;3.00;99.90;;;;;;5093662;28;20519;-67
2021/11/03 03:47:31;;;;;;;82.65;31.35;;;3.00;99.90;;;;;;5092797;28;20046;-67
2021/11/03 03:49:56;;;;;;;83.57;31.58;;;3.00;99.90;;;;;;5093604;28;20024;-67
2021/11/03 03:52:22;;;;;;;65.30;29.10;;;2.90;99.90;;;;;;5093859;28;20032;-67
2021/11/03 03:54:47;;;;;;;69.57;29.45;;;2.80;99.90;;;;;;5093285;28;20020;-67
2021/11/03 03:57:13;;;;;;;76.55;31.00;;;2.80;99.90;;;;;;5093794;28;20024;-67
2021/11/03 03:59:38;;;;;;;69.75;29.45;;;2.90;99.90;;;;;;5075187;28;20024;-67
2021/11/03 04:02:05;;;;;;;55.42;24.95;;;2.90;99.90;;;;;;5093771;28;20020;-67
2021/11/03 04:04:31;;;;;;;67.88;28.33;;;2.80;99.90;;;;;;5093143;28;20024;-67
2021/11/03 04:06:56;;;;;;;69.45;29.27;;;2.80;99.90;;;;;;5093738;28;20058;-67
2021/11/03 04:09:22;;;;;;;68.10;29.02;;;2.80;99.90;;;;;;5094336;28;20416;-67
2021/11/03 04:11:47;;;;;;;77.22;29.80;;;2.80;99.90;;;;;;5097567;28;20020;-67
2021/11/03 04:14:13;;;;;;;68.20;28.27;;;2.80;99.90;;;;;;5097202;28;20404;-67
2021/11/03 04:16:38;;;;;;;59.53;26.35;;;2.80;99.90;;;;;;5096337;28;20024;-67
2021/11/03 04:19:04;;;;;;;56.55;25.50;;;2.80;99.90;;;;;;5097405;28;20075;-67
2021/11/03 04:21:30;;;;;;;55.83;24.15;;;2.70;99.90;;;;;;5096809;28;20024;-67
2021/11/03 04:23:56;;;;;;;63.05;26.38;;;2.70;99.90;;;;;;5096654;28;20051;-67
2021/11/03 04:26:26;;;;;;;60.70;27.13;;;2.60;99.90;;;;;;5097281;28;20386;-67
2021/11/03 04:28:52;;;;;;;63.38;26.65;;;2.60;99.90;;;;;;5096690;28;20055;-67
2021/11/03 04:31:18;;;;;;;53.17;24.35;;;2.50;99.90;;;;;;5097194;28;20042;-67
2021/11/03 04:33:44;;;;;;;60.22;26.73;;;2.40;99.90;;;;;;5096557;28;20028;-67
2021/11/03 04:36:10;;;;;;;62.65;27.15;;;2.40;99.90;;;;;;5096513;28;20032;-67
2021/11/03 04:38:35;;;;;;;60.08;26.65;;;2.50;99.90;;;;;;5097008;28;20100;-67
2021/11/03 04:41:01;;;;;;;58.78;24.17;;;2.40;99.90;;;;;;5095502;28;20068;-67
2021/11/03 04:43:27;;;;;;;45.85;22.92;;;2.40;99.90;;;;;;5096894;28;20020;-67
2021/11/03 04:45:52;;;;;;;49.40;23.05;;;2.30;99.90;;;;;;5096883;28;20020;-67
2021/11/03 04:48:18;;;;;;;51.22;23.48;;;2.30;99.90;;;;;;5095369;28;20047;-67
2021/11/03 04:50:43;;;;;;;50.28;23.15;;;2.40;99.90;;;;;;5095641;28;20481;-67
2021/11/03 04:53:09;;;;;;;51.40;23.95;;;2.40;99.90;;;;;;5096505;28;20035;-67
2021/11/03 04:55:34;;;;;;;52.13;23.60;;;2.40;99.90;;;;;;5096432;28;20055;-67
2021/11/03 04:58:00;;;;;;;60.88;26.58;;;2.40;99.90;;;;;;5096369;28;20020;-67
2021/11/03 05:00:30;;;;;;;66.30;26.90;;;2.40;99.90;;;;;;5096597;28;20024;-67
2021/11/03 05:02:57;;;;;;;52.92;23.58;;;2.40;99.90;;;;;;5096194;28;20107;-67
2021/11/03 05:05:23;;;;;;;52.92;23.35;;;2.40;99.90;;;;;;5096502;28;20050;-67
2021/11/03 05:07:49;;;;;;;55.30;24.90;;;2.40;99.90;;;;;;5095947;28;20500;-67
2021/11/03 05:10:16;;;;;;;54.88;25.02;;;2.40;99.90;;;;;;5096467;28;20028;-67
2021/11/03 05:12:42;;;;;;;59.25;26.48;;;2.50;99.90;;;;;;5096391;28;20043;-67
2021/11/03 05:15:09;;;;;;;64.25;28.80;;;2.50;99.90;;;;;;5096143;28;20481;-67
2021/11/03 05:17:35;;;;;;;67.38;27.95;;;2.60;99.90;;;;;;5096023;28;20159;-67
2021/11/03 05:20:00;;;;;;;65.65;27.92;;;2.60;99.90;;;;;;5095879;28;20429;-67
2021/11/03 05:22:27;;;;;;;64.75;26.67;;;2.60;99.90;;;;;;5095828;28;20048;-67
2021/11/03 05:24:54;;;;;;;58.53;25.23;;;2.60;99.90;;;;;;5094444;28;20097;-67
2021/11/03 05:27:19;;;;;;;55.13;25.27;;;2.60;99.90;;;;;;5095859;28;20016;-67
2021/11/03 05:29:45;;;;;;;57.75;24.10;;;2.60;99.90;;;;;;5096045;28;20034;-67
2021/11/03 05:32:11;;;;;;;63.88;26.45;;;2.60;99.90;;;;;;5095750;28;20073;-67
2021/11/03 05:34:37;;;;;;;64.13;27.40;;;2.60;99.90;;;;;;5095397;28;20028;-67
2021/11/03 05:37:04;;;;;;;65.47;27.20;;;2.50;99.90;;;;;;5094736;28;20043;-67
2021/11/03 05:39:31;;;;;;;61.08;26.98;;;2.50;99.90;;;;;;5096068;28;20445;-67
2021/11/03 05:41:56;;;;;;;60.53;27.60;;;2.50;99.90;;;;;;5094383;28;20032;-67
2021/11/03 05:44:22;;;;;;;65.43;28.33;;;2.60;99.90;;;;;;5094281;28;20028;-67
2021/11/03 05:46:52;;;;;;;80.72;30.67;;;2.60;99.90;;;;;;5094299;28;20350;-67
2021/11/03 05:49:22;;;;;;;71.68;30.15;;;2.70;99.90;;;;;;5095388;28;20377;-67
2021/11/03 05:51:48;;;;;;;71.72;30.60;;;2.70;99.90;;;;;;5077320;28;20039;-67
2021/11/03 05:54:16;;;;;;;73.05;29.33;;;2.70;99.90;;;;;;5095270;28;20028;-67
2021/11/03 05:56:42;;;;;;;66.47;29.23;;;2.80;99.90;;;;;;5094991;28;20020;-67
2021/11/03 05:59:08;;;;;;;61.08;26.23;;;2.80;99.90;;;;;;5094945;28;20020;-67
2021/11/03 06:01:34;;;;;;;58.90;27.05;;;2.80;99.90;;;;;;5111029;28;20078;-67
2021/11/03 06:04:00;;;;;;;74.07;32.28;;;2.80;99.90;;;;;;5093889;28;20385;-67
2021/11/03 06:06:25;;;;;;;69.90;29.90;;;2.80;99.90;;;;;;5095009;28;20516;-67
2021/11/03 06:08:53;;;;;;;70.55;30.05;;;2.80;99.90;;;;;;5094713;28;20020;-67
2021/11/03 06:11:20;;;;;;;69.18;30.35;;;2.80;99.90;;;;;;5095224;28;20049;-67
2021/11/03 06:13:47;;;;;;;82.40;34.13;;;2.80;99.90;;;;;;5094930;28;20023;-67
2021/11/03 06:16:13;;;;;;;78.25;34.47;;;2.90;99.90;;;;;;5094825;28;20377;-67
2021/11/03 06:18:39;;;;;;;82.88;34.45;;;2.90;99.90;;;;;;5093390;28;20107;-67
2021/11/03 06:21:05;;;;;;;76.00;33.53;;;2.90;99.90;;;;;;5093816;28;20082;-67
2021/11/03 06:23:30;;;;;;;84.93;35.50;;;2.90;99.90;;;;;;5094389;28;20048;-67
2021/11/03 06:25:56;;;;;;;81.97;34.63;;;2.90;99.90;;;;;;5094916;28;20020;-67
2021/11/03 06:28:22;;;;;;;77.90;34.15;;;2.90;99.90;;;;;;5094660;28;20035;-67
2021/11/03 06:30:49;;;;;;;88.20;34.08;;;3.00;99.90;;;;;;5094862;28;20024;-67
2021/11/03 06:33:15;;;;;;;85.13;34.00;;;3.00;99.90;;;;;;5094315;28;20027;-67
2021/11/03 06:35:42;;;;;;;90.85;34.85;;;3.10;99.90;;;;;;5093292;28;20087;-67
2021/11/03 06:38:09;;;;;;;78.65;31.60;;;3.20;99.90;;;;;;5093028;28;20098;-67
2021/11/03 06:40:35;;;;;;;80.28;31.02;;;3.20;99.90;;;;;;5093236;28;20020;-67
2021/11/03 06:43:02;;;;;;;81.75;34.17;;;3.20;99.90;;;;;;5094577;28;20038;-67
2021/11/03 06:45:28;;;;;;;80.07;31.98;;;3.20;99.90;;;;;;5094573;28;20012;-67
2021/11/03 06:47:54;;;;;;;82.60;32.95;;;3.20;99.90;;;;;;5093342;28;20024;-67
2021/11/03 06:50:24;;;;;;;72.03;30.42;;;3.30;99.90;;;;;;5094498;28;20016;-67
2021/11/03 06:52:50;;;;;;;84.25;33.92;;;3.30;99.90;;;;;;5094481;28;20073;-67
2021/11/03 06:55:17;;;;;;;86.82;33.42;;;3.30;99.90;;;;;;5094174;28;20081;-67
2021/11/03 06:57:42;;;;;;;83.20;34.60;;;3.40;99.90;;;;;;5092861;28;20357;-68
2021/11/03 07:00:12;;;;;;;81.75;33.42;;;3.40;99.90;;;;;;5094279;28;20054;-67
2021/11/03 07:02:38;;;;;;;83.05;33.83;;;3.50;99.90;;;;;;5093975;28;20024;-67
2021/11/03 07:05:04;;;;;;;85.93;33.80;;;3.50;99.90;;;;;;5094262;28;20058;-67
2021/11/03 07:07:30;;;;;;;80.22;31.77;;;3.70;99.90;;;;;;5092425;28;20028;-67
2021/11/03 07:09:56;;;;;;;79.22;32.70;;;3.80;99.90;;;;;;5092100;28;20450;-67
2021/11/03 07:12:21;;;;;;;83.38;32.20;;;4.00;99.90;;;;;;5092644;28;20417;-67
2021/11/03 07:14:47;;;;;;;74.20;31.23;;;4.10;99.90;;;;;;5093986;28;20351;-67
2021/11/03 07:17:12;;;;;;;79.80;32.67;;;4.10;99.90;;;;;;5075362;28;20020;-67
2021/11/03 07:19:40;;;;;;;79.47;32.53;;;4.10;99.90;;;;;;5093840;28;20095;-67
2021/11/03 07:22:05;;;;;;;79.13;31.98;;;4.20;99.90;;;;;;5093738;28;20021;-67
2021/11/03 07:24:31;;;;;;;85.82;34.20;;;4.10;99.90;;;;;;5092994;28;20039;-67
2021/11/03 07:26:57;;;;;;;68.40;30.83;;;4.20;99.90;;;;;;5091770;28;20024;-67
2021/11/03 07:29:22;;;;;;;75.80;31.70;;;4.20;99.90;;;;;;5093391;28;20484;-67
2021/11/03 07:31:48;;;;;;;74.05;30.10;;;4.30;99.90;;;;;;5091484;28;20016;-67
2021/11/03 07:34:14;;;;;;;67.40;30.85;;;4.30;99.90;;;;;;5094813;28;20036;-67
2021/11/03 07:36:40;;;;;;;71.03;30.60;;;4.30;99.90;;;;;;5087803;28;20102;-67
2021/11/03 07:39:05;;;;;;;80.25;34.25;;;4.40;99.90;;;;;;5093279;28;20024;-67
2021/11/03 07:41:32;;;;;;;79.55;33.78;;;4.40;99.90;;;;;;5093620;28;20028;-68
2021/11/03 07:43:58;;;;;;;82.38;35.28;;;4.40;99.90;;;;;;5093492;28;20150;-67
2021/11/03 07:46:23;;;;;;;89.93;37.33;;;4.40;99.90;;;;;;5095980;28;20028;-63
2021/11/03 07:48:49;;;;;;;82.60;35.60;;;4.40;99.90;;;;;;5095853;28;20024;-64
2021/11/03 07:51:17;;;;;;;81.90;35.60;;;4.50;99.90;;;;;;5096371;28;20025;-62
2021/11/03 07:53:45;;;;;;;80.85;35.58;;;4.50;99.90;;;;;;5096941;28;20036;-67
2021/11/03 07:56:15;;;;;;;74.50;34.15;;;4.50;99.90;;;;;;5097309;28;20024;-67
2021/11/03 07:58:41;;;;;;;74.35;34.63;;;4.50;99.90;;;;;;5094965;28;20051;-67
2021/11/03 08:01:09;;;;;;;75.60;33.58;;;4.60;99.90;;;;;;5092893;28;20368;-67
2021/11/03 08:03:35;;;;;;;72.03;33.78;;;4.60;99.90;;;;;;5096887;28;20032;-67
2021/11/03 08:06:01;;;;;;;66.90;31.25;;;4.70;99.90;;;;;;5095512;28;20027;-68
2021/11/03 08:08:28;;;;;;;71.05;31.83;;;4.80;99.90;;;;;;5095432;28;20020;-69
2021/11/03 08:10:54;;;;;;;68.20;29.77;;;4.80;99.90;;;;;;5096753;28;20024;-68
2021/11/03 08:13:22;;;;;;;69.32;30.67;;;4.90;99.90;;;;;;5096622;28;20024;-69
2021/11/03 08:15:50;;;;;;;63.40;29.40;;;5.00;99.90;;;;;;5097387;28;20105;-68
2021/11/03 08:18:18;;;;;;;65.82;30.35;;;5.10;99.90;;;;;;5096752;28;20465;-68
2021/11/03 08:20:44;;;;;;;63.00;28.05;;;5.20;99.90;;;;;;5096678;28;20385;-68
2021/11/03 08:23:12;;;;;;;59.85;28.50;;;5.20;99.90;;;;;;5096579;28;20047;-66
2021/11/03 08:25:38;;;;;;;69.57;29.92;;;5.30;99.90;;;;;;5095419;28;20035;-67
2021/11/03 08:28:05;;;;;;;66.22;30.10;;;5.40;99.90;;;;;;5096050;28;20019;-68
2021/11/03 08:30:31;;;;;;;66.88;29.88;;;;;;;;;;5095257;28;20028;-68
2021/11/03 08:33:01;;;;;;;65.20;29.02;;;5.50;99.90;;;;;;5095802;28;20565;-68
2021/11/03 08:35:28;;;;;;;65.55;29.65;;;5.50;99.90;;;;;;5093720;28;20066;-67
2021/11/03 08:38:00;;;;;;;61.25;29.45;;;5.50;99.90;;;;;;5095088;28;20020;-67
2021/11/03 08:40:26;;;;;;;63.45;30.23;;;5.60;99.90;;;;;;5095946;28;20107;-68
2021/11/03 08:42:52;;;;;;;63.45;28.65;;;5.60;99.90;;;;;;5095936;28;20028;-68
2021/11/03 08:45:18;;;;;;;61.90;28.17;;;5.60;99.90;;;;;;5095210;28;20035;-68
2021/11/03 08:47:44;;;;;;;59.25;26.25;;;5.70;99.90;;;;;;5095214;28;20017;-68
2021/11/03 08:50:15;;;;;;;56.33;26.30;;;5.90;99.90;;;;;;5095202;28;20016;-68
2021/11/03 08:52:41;;;;;;;47.30;25.42;;;6.00;99.90;;;;;;5096259;28;20032;-68
2021/11/03 08:55:07;;;;;;;51.58;26.23;;;6.00;99.90;;;;;;5095298;28;20032;-68
2021/11/03 08:57:35;;;;;;;49.40;24.90;;;6.00;99.90;;;;;;5095848;28;20042;-68
2021/11/03 09:00:02;;;;;;;48.15;25.23;;;;;;;;;;5094359;28;20445;-68
2021/11/03 09:02:28;;;;;;;45.78;24.95;;;6.10;99.90;;;;;;5095733;28;20107;-68
2021/11/03 09:04:54;;;;;;;45.60;23.23;;;6.20;99.90;;;;;;5096050;28;20066;-68
2021/11/03 09:07:19;;;;;;;46.20;24.30;;;6.20;99.90;;;;;;5096276;28;20365;-68
2021/11/03 09:09:45;;;;;;;42.80;22.88;;;6.20;99.90;;;;;;5096175;28;20024;-68
2021/11/03 09:12:13;;;;;;;41.53;22.42;;;6.20;99.90;;;;;;5093893;28;20024;-69
2021/11/03 09:14:40;;;;;;;43.83;23.63;;;6.30;99.90;;;;;;5094817;28;20020;-68
2021/11/03 09:17:06;;;;;;;47.25;24.65;;;6.30;99.90;;;;;;5095378;28;20020;-68
2021/11/03 09:19:32;;;;;;;43.35;24.10;;;6.30;99.90;;;;;;5094298;28;20082;-68
2021/11/03 09:21:58;;;;;;;40.45;23.00;;;6.40;99.90;;;;;;5094585;28;20032;-69
2021/11/03 09:24:23;;;;;;;41.80;22.90;;;6.50;99.90;;;;;;5095315;28;20136;-69
2021/11/03 09:26:49;;;;;;;37.80;21.83;;;;;;;;;;5095661;28;20462;-69
2021/11/03 09:29:15;;;;;;;39.03;22.48;;;6.50;99.90;;;;;;5095624;28;20025;-69
2021/11/03 09:31:44;;;;;;;41.50;22.83;;;6.60;99.90;;;;;;5095471;28;20028;-69
2021/11/03 09:34:09;;;;;;;43.42;22.58;;;6.70;99.90;;;;;;5093887;28;20089;-68
2021/11/03 09:36:36;;;;;;;43.00;23.88;;;6.70;99.90;;;;;;5094931;28;20028;-69
2021/11/03 09:39:03;;;;;;;41.20;22.42;;;6.70;99.90;;;;;;5095320;28;20028;-69
2021/11/03 09:41:42;;;;;;;43.90;23.80;;;6.80;99.90;;;;;;5094187;28;20374;-69
2021/11/03 09:44:26;;;;;;;47.28;24.13;;;6.80;99.90;;;;;;5095560;28;20454;-69
2021/11/03 09:46:58;;;;;;;42.45;24.00;;;6.90;99.90;;;;;;5094889;28;20074;-68
2021/11/03 09:49:35;;;;;;;39.38;22.90;;;6.90;99.90;;;;;;5095550;28;20019;-69
2021/11/03 09:52:04;;;;;;;44.75;22.00;;;;;;;;;;5094990;28;20024;-69
2021/11/03 09:54:33;;;;;;;39.45;22.00;;;;;;;;;;5095185;28;20024;-69
2021/11/03 09:57:01;;;;;;;38.95;21.80;;;;;;;;;;5094749;28;20481;-69
2021/11/03 09:59:47;;;;;;;39.83;21.80;;;;;;;;;;5093826;28;20028;-69
2021/11/03 10:02:33;;;;;;;43.38;23.15;;;;;;;;;;5095152;28;20153;-69
2021/11/03 10:05:06;;;;;;;38.95;22.85;;;;;;;;;;5094900;28;20032;-70
2021/11/03 10:07:51;;;;;;;45.93;23.67;;;;;;;;;;5092025;28;20040;-70
2021/11/03 10:10:23;;;;;;;38.72;21.77;;;;;;;;;;5089674;28;20259;-69
2021/11/03 10:12:50;;;;;;;42.92;22.85;;;;;;;;;;5093835;28;20051;-70
2021/11/03 10:15:17;;;;;;;42.33;22.67;;;;;;;;;;5094606;28;20113;-70
2021/11/03 10:17:44;;;;;;;41.03;21.80;;;;;;;;;;5094865;28;20457;-69
2021/11/03 10:20:29;;;;;;;37.28;21.15;;;;;;;;;;5094640;28;20142;-69
2021/11/03 10:23:05;;;;;;;37.85;21.08;;;;;;;;;;5093982;28;20044;-70
2021/11/03 10:25:31;;;;;;;37.70;22.33;;;;;;;;;;5094229;28;20035;-70
2021/11/03 10:27:59;;;;;;;41.35;21.50;;;;;;;;;;5093035;28;20020;-70
2021/11/03 10:30:31;;;;;;;40.63;20.60;;;;;;;;;;5094127;28;20017;-70
2021/11/03 10:32:58;;;;;;;45.50;20.92;;;;;;;;;;5093837;28;20048;-70
2021/11/03 10:35:41;;;;;;;46.35;22.25;;;;;;;;;;5083204;28;20413;-70
2021/11/03 10:38:07;;;;;;;;;;;;;;;;;;5094819;28;20024;-70
2021/11/03 10:40:43;;;;;;;40.55;19.38;;;;;;;;;;5093198;28;19912;-71
2021/11/03 10:43:22;;;;;;;44.22;22.55;;;;;;;;;;5096957;28;20111;-71
2021/11/03 10:45:55;;;;;;;42.80;21.67;;;;;;;;;;5106214;28;20012;-70
2021/11/03 10:48:24;;;;;;;37.42;19.88;;;;;;;;;;5094062;28;20403;-70
2021/11/03 10:50:59;;;;;;;50.70;24.88;;;;;;;;;;5093981;28;20437;-70
2021/11/03 10:56:28;;;;;;;47.25;22.85;;;;;;;;;;5111290;27;20388;-70
2021/11/03 11:01:44;;;;;;;38.55;21.38;;;;;;;;;;5091371;28;20405;-70
2021/11/03 11:04:30;;;;;;;36.70;22.65;;;;;;;;;;5091102;28;20031;-70
2021/11/03 11:06:59;;;;;;;47.33;22.98;;;;;;;;;;5090807;28;20031;-70
2021/11/03 11:09:32;;;;;;;43.08;22.20;;;;;;;;;;5090973;28;20078;-70
2021/11/03 11:12:00;;;;;;;41.80;23.80;;;;;;;;;;5090758;28;20123;-70
2021/11/03 11:14:29;;;;;;;45.75;23.52;;;;;;;;;;5090436;28;20035;-69
2021/11/03 11:17:02;;;;;;;43.13;21.17;;;;;;;;;;5090267;28;20025;-69
2021/11/03 11:19:30;;;;;;;;;;;;;;;;;;5090818;28;20032;-69
2021/11/03 11:22:00;;;;;;;37.97;21.88;;;;;;;;;;5090450;28;19904;-70
2021/11/03 11:24:32;;;;;;;41.70;22.67;;;;;;;;;;5090717;28;20119;-69
2021/11/03 11:27:18;;;;;;;38.95;21.20;;;;;;;;;;5090459;28;20025;-70
2021/11/03 11:29:52;;;;;;;44.28;20.33;;;;;;;;;;5090531;28;20028;-70
2021/11/03 11:32:38;;;;;;;38.47;19.27;;;;;;;;;;5090684;28;20020;-70
2021/11/03 11:35:14;;;;;;;38.08;20.52;;;;;;;;;;5089263;28;20032;-69
2021/11/03 11:37:57;;;;;;;39.70;20.40;;;;;;;;;;5090093;28;20104;-69
2021/11/03 11:40:29;;;;;;;36.15;19.15;;;;;;;;;;5089872;28;20164;-69
2021/11/03 11:43:02;;;;;;;32.47;19.58;;;;;;;;;;5089851;28;20021;-69
2021/11/03 11:45:29;;;;;;;32.45;18.90;;;;;;;;;;5087887;28;20386;-68
2021/11/03 11:47:59;;;;;;;29.20;17.70;;;;;;;;;;5088884;28;20017;-70
2021/11/03 11:50:29;;;;;;;33.42;17.70;;;;;;;;;;5084525;28;20123;-70
2021/11/03 11:52:59;;;;;;;25.73;15.40;;;;;;;;;;5086266;28;20032;-70
2021/11/03 11:55:27;;;;;;;28.40;16.98;;;;;;;;;;5089958;28;20032;-70
2021/11/03 12:01:05;;;;;;;24.67;15.02;;;;;;;;;;5111754;27;20745;-71
2021/11/03 12:03:31;;;;;;;29.17;16.45;;;;;;;;;;5109426;28;20022;-71
2021/11/03 12:06:04;;;;;;;25.90;16.13;;;;;;;;;;5111602;28;20020;-70
2021/11/03 12:08:46;;;;;;;27.13;16.65;;;;;;;;;;5111313;28;20427;-70
2021/11/03 12:11:16;;;;;;;29.65;16.95;;;;;;;;;;5111383;28;20020;-70
2021/11/03 12:16:43;;;;;;;28.27;16.23;;;;;;;;;;5090828;28;20425;-70
2021/11/03 12:19:29;;;;;;;25.38;16.27;;;;;;;;;;5090819;28;20587;-70
2021/11/03 12:21:57;;;;;;;28.50;16.55;;;;;;;;;;5089115;28;20032;-71
2021/11/03 12:24:28;;;;;;;22.27;15.20;;;;;;;;;;5091204;28;20373;-71
2021/11/03 12:27:14;;;;;;;25.58;16.50;;;;;;;;;;5090376;28;20020;-71
2021/11/03 12:29:41;;;;;;;29.98;16.50;;;;;;;;;;5070425;28;20422;-71
2021/11/03 12:32:20;;;;;;;25.17;16.38;;;;;;;;;;5088826;28;20020;-70
2021/11/03 12:34:46;;;;;;;28.13;16.50;;;;;;;;;;5090722;28;20040;-70
2021/11/03 12:39:52;;;;;;;30.05;17.33;;;;;;;;;;5111327;27;20296;-70
2021/11/03 12:42:22;;;;;;;36.97;18.58;;;;;;;;;;5111047;28;20024;-70
2021/11/03 12:44:49;;;;;;;41.60;17.77;;;;;;;;;;5111507;28;20433;-70
2021/11/03 12:47:20;;;;;;;44.65;19.27;;;;;;;;;;5110292;28;20026;-70
2021/11/03 12:49:58;;;;;;;43.35;18.77;;;;;;;;;;5110138;28;20073;-70
2021/11/03 12:52:26;;;;;;;48.67;19.50;;;;;;;;;;5110816;28;20027;-70
2021/11/03 12:54:53;;;;;;;47.53;19.67;;;;;;;;;;5110250;28;20039;-70
2021/11/03 12:57:21;;;;;;;52.85;20.38;;;;;;;;;;5110080;28;20393;-70
2021/11/03 12:59:58;;;;;;;59.40;21.73;;;;;;;;;;5109891;28;20032;-70
2021/11/03 13:02:25;;;;;;;49.05;20.17;;;;;;;;;;5108160;28;20024;-70
2021/11/03 13:05:11;;;;;;;49.38;20.27;;;;;;;;;;5107297;28;20024;-71
2021/11/03 13:07:38;;;;;;;52.83;21.77;;;;;;;;;;5110302;28;20024;-70
2021/11/03 13:10:24;;;;;;;52.60;19.98;;;;;;;;;;5110863;28;20028;-71
2021/11/03 13:12:56;;;;;;;46.20;19.83;;;;;;;;;;5089106;28;20031;-70
2021/11/03 13:15:24;;;;;;;42.88;20.17;;;;;;;;;;5090565;28;20024;-70
2021/11/03 13:17:53;;;;;;;44.60;20.98;;;;;;;;;;5090391;28;20029;-70
2021/11/03 13:20:21;;;;;;;39.13;20.52;;;;;;;;;;5090419;28;20025;-70